Time;durP1;ratioP1;P1;durP2;ratioP2;P2;SDS_P1;SDS_P2;PMS_P1;PMS_P2;Temp;Humidity;BMP_temperature;BMP_pressure;BME280_temperature;BME280_humidity;BME280_pressure;Samples;Min_cycle;Max_cycle;Signal;HPM_P1;HPM_P2
2021/06/08 00:01:04;;;;;;;20.13;18.02;;;15.50;99.90;;;;;;5033509;28;20224;-69
2021/06/08 00:03:31;;;;;;;20.33;18.33;;;15.50;99.90;;;;;;5031678;28;20208;-71
2021/06/08 00:05:58;;;;;;;21.67;19.52;;;15.40;99.90;;;;;;5031696;28;20208;-72
2021/06/08 00:08:25;;;;;;;21.52;19.30;;;15.40;99.90;;;;;;5029200;28;20208;-71
2021/06/08 00:10:52;;;;;;;25.20;22.40;;;15.40;99.90;;;;;;5032303;28;20196;-69
2021/06/08 00:13:20;;;;;;;18.42;16.45;;;15.50;99.90;;;;;;5031779;28;20677;-71
2021/06/08 00:15:46;;;;;;;23.73;20.38;;;15.50;99.90;;;;;;5042239;28;20210;-73
2021/06/08 00:18:14;;;;;;;22.27;19.73;;;15.50;99.90;;;;;;5031685;28;20239;-71
2021/06/08 00:20:41;;;;;;;21.85;19.63;;;15.50;99.90;;;;;;5035230;28;20231;-70
2021/06/08 00:23:08;;;;;;;21.65;18.95;;;15.50;99.90;;;;;;5036590;28;20196;-74
2021/06/08 00:25:35;;;;;;;19.70;17.17;;;15.50;99.90;;;;;;5035241;28;20203;-70
2021/06/08 00:28:03;;;;;;;21.77;19.50;;;15.50;99.90;;;;;;5034746;28;20279;-73
2021/06/08 00:30:30;;;;;;;22.45;20.33;;;15.50;99.90;;;;;;5029513;28;20201;-70
2021/06/08 00:32:57;;;;;;;22.08;19.88;;;15.50;99.90;;;;;;5032161;28;20209;-73
2021/06/08 00:35:27;;;;;;;22.42;20.23;;;15.40;99.90;;;;;;5033386;28;20205;-70
2021/06/08 00:37:54;;;;;;;22.40;19.08;;;15.50;99.90;;;;;;5034277;28;20228;-72
2021/06/08 00:40:20;;;;;;;25.55;21.98;;;15.50;99.90;;;;;;5033091;28;20220;-72
2021/06/08 00:42:49;;;;;;;24.63;21.90;;;15.50;99.90;;;;;;5038235;28;20213;-73
2021/06/08 00:45:16;;;;;;;20.77;18.60;;;15.40;99.90;;;;;;5034859;28;20331;-73
2021/06/08 00:47:42;;;;;;;23.50;20.48;;;15.40;99.90;;;;;;5035517;28;20232;-72
2021/06/08 00:50:10;;;;;;;20.58;18.38;;;15.40;99.90;;;;;;5034599;28;20200;-70
2021/06/08 00:52:38;;;;;;;25.05;21.50;;;15.40;99.90;;;;;;5041548;28;20196;-70
2021/06/08 00:55:07;;;;;;;22.65;19.95;;;15.40;99.90;;;;;;5032462;28;20220;-72
2021/06/08 00:57:34;;;;;;;22.15;19.52;;;15.40;99.90;;;;;;5037014;28;20228;-74
2021/06/08 01:00:00;;;;;;;26.73;19.45;;;15.40;99.90;;;;;;5028872;28;20220;-73
2021/06/08 01:02:27;;;;;;;23.73;21.33;;;15.40;99.90;;;;;;5033258;28;20294;-73
2021/06/08 01:04:55;;;;;;;22.98;20.15;;;15.40;99.90;;;;;;5037432;28;20306;-73
2021/06/08 01:07:21;;;;;;;24.48;20.73;;;15.40;99.90;;;;;;5034670;28;20228;-73
2021/06/08 01:09:51;;;;;;;26.50;23.77;;;15.40;99.90;;;;;;5033922;28;20196;-72
2021/06/08 01:12:17;;;;;;;27.90;23.50;;;15.40;99.90;;;;;;5034634;28;20222;-71
2021/06/08 01:14:44;;;;;;;25.05;22.63;;;15.40;99.90;;;;;;5034617;28;20234;-73
2021/06/08 01:17:11;;;;;;;26.48;21.67;;;15.40;99.90;;;;;;5033235;28;20702;-72
2021/06/08 01:19:37;;;;;;;25.98;23.35;;;15.40;99.90;;;;;;5031151;28;20542;-71
2021/06/08 01:22:13;;;;;;;24.58;22.08;;;15.40;99.90;;;;;;5031828;28;20223;-72
2021/06/08 01:24:39;;;;;;;24.05;21.48;;;15.40;99.90;;;;;;5036431;28;20207;-71
2021/06/08 01:27:08;;;;;;;25.80;22.85;;;15.40;99.90;;;;;;5039672;28;20220;-71
2021/06/08 01:29:35;;;;;;;28.98;25.08;;;15.50;99.90;;;;;;5034135;28;20231;-72
2021/06/08 01:32:04;;;;;;;26.13;22.00;;;15.50;99.90;;;;;;5042389;28;20649;-70
2021/06/08 01:34:31;;;;;;;27.33;23.67;;;15.40;99.90;;;;;;5028746;28;20204;-70
2021/06/08 01:36:58;;;;;;;24.20;21.60;;;15.40;99.90;;;;;;5029321;28;20228;-70
2021/06/08 01:39:26;;;;;;;28.35;24.58;;;15.40;99.90;;;;;;5032468;28;20209;-72
2021/06/08 01:41:53;;;;;;;25.88;23.08;;;15.40;99.90;;;;;;5034412;28;20204;-71
2021/06/08 01:44:21;;;;;;;28.10;24.30;;;15.40;99.90;;;;;;5038094;28;20213;-71
2021/06/08 01:46:47;;;;;;;32.55;25.92;;;15.40;99.90;;;;;;5036024;28;20232;-70
2021/06/08 01:49:14;;;;;;;29.00;24.33;;;15.40;99.90;;;;;;5036235;28;20220;-72
2021/06/08 01:51:50;;;;;;;26.25;23.58;;;15.40;99.90;;;;;;5034790;28;20694;-74
2021/06/08 01:54:29;;;;;;;29.67;26.65;;;15.40;99.90;;;;;;5016552;28;20261;-69
2021/06/08 01:57:03;;;;;;;26.98;24.08;;;15.40;99.90;;;;;;5034224;28;20562;-73
2021/06/08 01:59:36;;;;;;;24.63;21.95;;;15.50;99.90;;;;;;5033834;28;20622;-72
2021/06/08 02:02:09;;;;;;;28.98;25.10;;;15.50;99.90;;;;;;5034335;28;20215;-72
2021/06/08 02:04:42;;;;;;;26.63;23.75;;;15.50;99.90;;;;;;5033715;28;20223;-74
2021/06/08 02:07:22;;;;;;;29.70;26.50;;;15.50;99.90;;;;;;5020175;28;20677;-72
2021/06/08 02:09:57;;;;;;;31.65;27.05;;;15.40;99.90;;;;;;5013129;28;20208;-75
2021/06/08 02:12:26;;;;;;;35.80;26.08;;;15.40;99.90;;;;;;5015273;28;20200;-75
2021/06/08 02:15:02;;;;;;;31.77;27.15;;;15.40;99.90;;;;;;5033934;28;20204;-72
2021/06/08 02:17:33;;;;;;;33.42;27.63;;;15.40;99.90;;;;;;5033870;28;20232;-70
2021/06/08 02:20:06;;;;;;;31.02;25.65;;;15.40;99.90;;;;;;5033248;28;20592;-69
2021/06/08 02:22:36;;;;;;;26.17;22.25;;;15.40;99.90;;;;;;5036517;28;20200;-71
2021/06/08 02:25:04;;;;;;;32.55;25.15;;;15.40;99.90;;;;;;5032065;28;20227;-71
2021/06/08 02:27:34;;;;;;;31.05;26.48;;;15.40;99.90;;;;;;5033815;28;20235;-72
2021/06/08 02:30:01;;;;;;;33.22;27.48;;;15.40;99.90;;;;;;5032372;28;20200;-69
2021/06/08 02:32:30;;;;;;;29.75;26.25;;;15.50;99.90;;;;;;5033648;28;20211;-73
2021/06/08 02:34:58;;;;;;;32.70;27.85;;;15.50;99.90;;;;;;5028335;28;20212;-73
2021/06/08 02:37:27;;;;;;;32.35;28.00;;;15.50;99.90;;;;;;5025801;28;20224;-70
2021/06/08 02:39:54;;;;;;;30.73;26.02;;;15.50;99.90;;;;;;5028008;28;20283;-69
2021/06/08 02:42:22;;;;;;;32.92;27.10;;;15.50;99.90;;;;;;5033827;28;20208;-70
2021/06/08 02:44:51;;;;;;;29.50;24.63;;;15.50;99.90;;;;;;5033743;28;20228;-71
2021/06/08 02:47:19;;;;;;;33.00;28.73;;;15.60;99.90;;;;;;5032724;28;20234;-68
2021/06/08 02:49:47;;;;;;;32.78;28.00;;;15.50;99.90;;;;;;5032798;28;20346;-72
2021/06/08 02:52:16;;;;;;;33.95;28.00;;;15.50;99.90;;;;;;5031322;28;20205;-72
2021/06/08 02:54:43;;;;;;;34.85;28.42;;;15.50;99.90;;;;;;5033283;28;20621;-70
2021/06/08 02:57:11;;;;;;;33.28;26.83;;;15.50;99.90;;;;;;5031410;28;20236;-72
2021/06/08 02:59:39;;;;;;;39.30;30.45;;;15.50;99.90;;;;;;5031126;28;20687;-72
2021/06/08 03:02:12;;;;;;;33.15;29.10;;;15.40;99.90;;;;;;5032992;28;20625;-73
2021/06/08 03:04:46;;;;;;;37.42;29.70;;;15.50;99.90;;;;;;5031145;28;20206;-70
2021/06/08 03:07:14;;;;;;;33.58;29.65;;;15.50;99.90;;;;;;5014793;28;20699;-70
2021/06/08 03:09:47;;;;;;;34.28;29.05;;;15.50;99.90;;;;;;5031073;28;20323;-73
2021/06/08 03:12:17;;;;;;;34.22;28.20;;;15.50;99.90;;;;;;5032484;28;20507;-73
2021/06/08 03:14:46;;;;;;;31.13;27.75;;;15.50;99.90;;;;;;5032968;28;20553;-71
2021/06/08 03:17:16;;;;;;;37.08;30.10;;;15.50;99.90;;;;;;5032824;28;20224;-71
2021/06/08 03:19:46;;;;;;;30.55;26.75;;;15.40;99.90;;;;;;5026883;28;20663;-72
2021/06/08 03:22:17;;;;;;;35.70;27.65;;;15.50;99.90;;;;;;5033029;28;20282;-72
2021/06/08 03:24:47;;;;;;;35.17;30.05;;;15.50;99.90;;;;;;5032553;28;20196;-73
2021/06/08 03:27:14;;;;;;;34.30;28.15;;;15.50;99.90;;;;;;5032187;28;20228;-72
2021/06/08 03:29:42;;;;;;;34.78;28.73;;;15.60;99.90;;;;;;5032065;28;20871;-72
2021/06/08 03:32:09;;;;;;;35.83;29.42;;;15.50;99.90;;;;;;5031667;28;20263;-71
2021/06/08 03:34:39;;;;;;;40.72;28.90;;;15.60;99.90;;;;;;5030320;28;20599;-72
2021/06/08 03:37:06;;;;;;;36.13;28.70;;;15.60;99.90;;;;;;5029896;28;20225;-71
2021/06/08 03:39:35;;;;;;;34.75;29.08;;;15.60;99.90;;;;;;5027804;28;20202;-71
2021/06/08 03:42:03;;;;;;;30.48;27.27;;;15.60;99.90;;;;;;5029271;28;20196;-72
2021/06/08 03:44:30;;;;;;;31.42;28.00;;;15.60;99.90;;;;;;5032756;28;20531;-72
2021/06/08 03:46:57;;;;;;;35.58;30.23;;;15.60;99.90;;;;;;5027061;28;20224;-71
2021/06/08 03:49:24;;;;;;;35.08;29.10;;;15.60;99.90;;;;;;5033127;28;20205;-71
2021/06/08 03:51:55;;;;;;;33.08;25.70;;;15.70;99.90;;;;;;5028743;28;20308;-74
2021/06/08 03:54:23;;;;;;;34.85;28.88;;;15.70;99.90;;;;;;5025147;28;20214;-71
2021/06/08 03:56:52;;;;;;;32.75;29.05;;;15.70;99.90;;;;;;5031378;28;20236;-69
2021/06/08 03:59:22;;;;;;;32.03;28.58;;;15.70;99.90;;;;;;5033964;28;20204;-68
2021/06/08 04:01:50;;;;;;;33.22;29.70;;;15.80;99.90;;;;;;5031916;28;20231;-72
2021/06/08 04:04:17;;;;;;;34.20;30.05;;;15.70;99.90;;;;;;5032911;28;20207;-71
2021/06/08 04:06:46;;;;;;;35.47;28.77;;;15.70;99.90;;;;;;5019551;28;20223;-72
2021/06/08 04:09:14;;;;;;;35.30;30.27;;;15.70;99.90;;;;;;5028267;28;20201;-72
2021/06/08 04:11:42;;;;;;;35.72;30.13;;;15.70;99.90;;;;;;5031485;28;20204;-70
2021/06/08 04:14:10;;;;;;;33.97;29.08;;;15.70;99.90;;;;;;5044950;28;20201;-69
2021/06/08 04:16:37;;;;;;;34.60;30.80;;;15.80;99.90;;;;;;5044731;28;20293;-70
2021/06/08 04:19:09;;;;;;;37.95;31.63;;;15.80;99.90;;;;;;5044615;28;20211;-71
2021/06/08 04:21:36;;;;;;;36.28;29.50;;;15.70;99.90;;;;;;5045813;28;20231;-70
2021/06/08 04:24:05;;;;;;;37.90;30.95;;;15.80;99.90;;;;;;5047326;28;20215;-69
2021/06/08 04:26:34;;;;;;;37.60;32.65;;;15.80;99.90;;;;;;5039083;28;20269;-70
2021/06/08 04:29:02;;;;;;;35.10;28.10;;;15.80;99.90;;;;;;5044801;28;20208;-72
2021/06/08 04:31:29;;;;;;;32.78;28.85;;;15.80;99.90;;;;;;5050952;28;20631;-70
2021/06/08 04:33:57;;;;;;;38.83;30.13;;;15.90;99.90;;;;;;5045445;28;20212;-68
2021/06/08 04:36:25;;;;;;;31.23;26.33;;;15.90;99.90;;;;;;5044322;28;20228;-69
2021/06/08 04:38:52;;;;;;;29.70;25.95;;;15.90;99.90;;;;;;5043529;28;20295;-68
2021/06/08 04:41:19;;;;;;;29.65;26.35;;;15.90;99.90;;;;;;5045948;28;20205;-70
2021/06/08 04:43:47;;;;;;;27.58;24.63;;;16.00;99.90;;;;;;5035904;28;20628;-72
2021/06/08 04:46:15;;;;;;;29.20;26.23;;;16.00;99.90;;;;;;5028571;28;20634;-68
2021/06/08 04:48:43;;;;;;;33.33;26.98;;;16.10;99.90;;;;;;5040164;28;20224;-70
2021/06/08 04:51:10;;;;;;;32.42;26.50;;;16.20;99.90;;;;;;5035747;28;20216;-73
2021/06/08 04:53:37;;;;;;;30.90;25.40;;;16.20;99.90;;;;;;5035776;28;20202;-69
2021/06/08 04:56:06;;;;;;;31.02;23.30;;;16.30;99.90;;;;;;5034866;28;20655;-72
2021/06/08 04:58:33;;;;;;;28.40;24.48;;;16.30;99.90;;;;;;5034666;28;20224;-72
2021/06/08 05:01:14;;;;;;;28.50;24.08;;;16.30;99.90;;;;;;5032258;28;20634;-71
2021/06/08 05:03:42;;;;;;;25.45;21.67;;;16.40;99.90;;;;;;5012415;28;20214;-72
2021/06/08 05:06:13;;;;;;;28.83;23.55;;;16.50;99.90;;;;;;5034218;28;20215;-73
2021/06/08 05:08:44;;;;;;;27.65;21.73;;;16.50;99.90;;;;;;5030536;28;20214;-70
2021/06/08 05:11:15;;;;;;;25.33;22.63;;;16.60;99.90;;;;;;5039210;28;20269;-71
2021/06/08 05:13:46;;;;;;;35.25;22.35;;;16.60;99.90;;;;;;5033752;28;20734;-68
2021/06/08 05:16:15;;;;;;;22.98;20.15;;;16.70;99.90;;;;;;5034224;28;20223;-72
2021/06/08 05:18:43;;;;;;;25.52;20.58;;;16.70;99.90;;;;;;5033868;28;20203;-70
2021/06/08 05:21:15;;;;;;;22.30;20.10;;;16.80;99.90;;;;;;5027910;28;20223;-71
2021/06/08 05:23:42;;;;;;;21.70;19.40;;;16.80;99.90;;;;;;5027963;28;20212;-70
2021/06/08 05:26:11;;;;;;;25.65;21.58;;;16.80;99.90;;;;;;5032820;28;20229;-70
2021/06/08 05:28:40;;;;;;;25.55;21.02;;;16.90;99.90;;;;;;5034053;28;20207;-70
2021/06/08 05:31:07;;;;;;;22.98;18.73;;;17.00;99.90;;;;;;5034755;28;20203;-71
2021/06/08 05:33:35;;;;;;;23.33;20.87;;;17.10;99.90;;;;;;5033290;28;20212;-72
2021/06/08 05:36:02;;;;;;;23.65;21.15;;;17.30;99.90;;;;;;5026943;28;20444;-73
2021/06/08 05:38:30;;;;;;;23.65;21.15;;;17.40;99.90;;;;;;5030462;28;20211;-74
2021/06/08 05:41:02;;;;;;;25.43;20.87;;;17.40;99.90;;;;;;5022464;28;20233;-70
2021/06/08 05:43:29;;;;;;;22.67;20.27;;;17.50;99.90;;;;;;5025508;28;20447;-75
2021/06/08 05:45:56;;;;;;;23.60;21.10;;;17.70;99.90;;;;;;5030153;28;20457;-71
2021/06/08 05:48:24;;;;;;;19.53;17.63;;;17.90;99.90;;;;;;5022280;28;20457;-75
2021/06/08 05:50:54;;;;;;;21.00;18.20;;;18.20;99.90;;;;;;5024363;28;20457;-75
2021/06/08 05:53:21;;;;;;;24.13;18.43;;;18.50;99.90;;;;;;5032327;28;20504;-73
2021/06/08 05:55:51;;;;;;;22.73;19.23;;;18.60;99.90;;;;;;5018780;28;20455;-73
2021/06/08 05:58:22;;;;;;;22.20;18.77;;;18.80;99.90;;;;;;5020092;28;20468;-73
2021/06/08 06:00:49;;;;;;;22.07;19.60;;;18.80;99.90;;;;;;5024454;28;20969;-71
2021/06/08 06:03:17;;;;;;;20.13;18.03;;;18.80;99.90;;;;;;5022694;28;20455;-72
2021/06/08 06:05:46;;;;;;;19.50;17.50;;;18.60;99.90;;;;;;5023575;28;20440;-73
2021/06/08 06:08:14;;;;;;;20.43;18.23;;;18.70;99.90;;;;;;5028600;28;20456;-74
2021/06/08 06:10:42;;;;;;;17.40;15.77;;;18.70;99.90;;;;;;5025625;28;20478;-71
2021/06/08 06:13:13;;;;;;;22.43;17.70;;;18.80;99.90;;;;;;5026348;28;20447;-72
2021/06/08 06:15:40;;;;;;;18.27;16.37;;;18.80;99.90;;;;;;5031238;28;20458;-70
2021/06/08 06:18:08;;;;;;;24.10;16.70;;;19.00;99.90;;;;;;5032842;28;20867;-72
2021/06/08 06:20:35;;;;;;;20.40;15.30;;;19.10;99.90;;;;;;5032828;28;20780;-72
2021/06/08 06:23:02;;;;;;;21.60;16.17;;;19.30;99.90;;;;;;5032803;28;20461;-72
2021/06/08 06:25:31;;;;;;;16.87;15.13;;;19.50;99.90;;;;;;5026916;28;20439;-71
2021/06/08 06:27:57;;;;;;;14.90;13.23;;;19.80;99.90;;;;;;5032551;28;20596;-73
2021/06/08 06:30:25;;;;;;;16.03;14.33;;;20.10;99.90;;;;;;5032627;28;20554;-70
2021/06/08 06:32:52;;;;;;;15.53;13.17;;;20.40;99.90;;;;;;5032424;28;20773;-70
2021/06/08 06:35:20;;;;;;;17.20;14.17;;;20.60;99.90;;;;;;5029535;28;20973;-69
2021/06/08 06:37:47;;;;;;;15.20;13.60;;;21.00;99.90;;;;;;5036512;28;20549;-73
2021/06/08 06:40:19;;;;;;;13.20;11.80;;;21.60;99.90;;;;;;5037245;28;20553;-69
2021/06/08 06:42:49;;;;;;;12.30;10.10;;;23.00;99.90;;;;;;5026951;28;20446;-72
2021/06/08 06:45:17;;;;;;;10.90;9.83;;;24.60;99.90;;;;;;5032093;28;21003;-71
2021/06/08 06:47:44;;;;;;;11.90;10.60;;;25.50;98.20;;;;;;5035353;28;20497;-72
2021/06/08 06:50:12;;;;;;;12.70;10.40;;;25.60;95.80;;;;;;5041347;28;20458;-71
2021/06/08 06:52:40;;;;;;;13.20;11.80;;;25.40;95.80;;;;;;5031750;28;20446;-70
2021/06/08 06:55:08;;;;;;;12.83;11.73;;;25.20;96.00;;;;;;5031290;28;20453;-73
2021/06/08 06:57:36;;;;;;;13.17;11.10;;;25.20;96.80;;;;;;5031410;28;20463;-71
2021/06/08 07:00:05;;;;;;;11.67;10.53;;;26.00;95.30;;;;;;5031231;28;20465;-70
2021/06/08 07:02:34;;;;;;;15.40;11.30;;;26.40;94.10;;;;;;5031465;28;20455;-72
2021/06/08 07:05:01;;;;;;;12.80;10.70;;;26.60;93.20;;;;;;5035978;28;20454;-70
2021/06/08 07:07:29;;;;;;;12.40;11.10;;;26.30;93.60;;;;;;5029440;28;20566;-70
2021/06/08 07:09:56;;;;;;;12.30;11.20;;;26.20;93.60;;;;;;5027854;28;21645;-70
2021/06/08 07:12:24;;;;;;;15.80;12.80;;;25.80;94.10;;;;;;5024530;28;20506;-72
2021/06/08 07:14:51;;;;;;;13.10;11.80;;;25.50;94.30;;;;;;5036081;28;20476;-71
2021/06/08 07:17:20;;;;;;;16.43;12.27;;;25.30;95.40;;;;;;5034074;28;20477;-71
2021/06/08 07:19:48;;;;;;;12.97;11.77;;;25.00;95.30;;;;;;5017892;28;20447;-75
2021/06/08 07:22:30;;;;;;;16.53;12.23;;;24.80;96.20;;;;;;4986256;28;20492;-72
2021/06/08 07:24:57;;;;;;;15.00;11.73;;;24.70;96.30;;;;;;5019415;28;20452;-73
2021/06/08 07:27:24;;;;;;;13.03;11.63;;;24.60;96.80;;;;;;5020031;28;20489;-72
2021/06/08 07:29:52;;;;;;;16.03;12.93;;;25.00;96.50;;;;;;5026846;28;20447;-69
2021/06/08 07:32:25;;;;;;;14.73;11.30;;;25.10;95.70;;;;;;5030991;28;20446;-73
2021/06/08 07:34:59;;;;;;;10.67;9.43;;;25.20;96.00;;;;;;5032625;28;20906;-70
2021/06/08 07:37:28;;;;;;;14.57;10.77;;;24.90;96.10;;;;;;5023261;28;20479;-70
2021/06/08 07:40:01;;;;;;;15.83;11.50;;;24.80;96.20;;;;;;5031141;28;20447;-70
2021/06/08 07:42:37;;;;;;;13.83;12.30;;;25.10;96.20;;;;;;5031384;28;20459;-69
2021/06/08 07:45:06;;;;;;;12.70;11.50;;;25.30;95.90;;;;;;5012896;28;20477;-70
2021/06/08 07:47:34;;;;;;;13.37;11.73;;;25.30;95.50;;;;;;5023737;28;20466;-71
2021/06/08 07:50:04;;;;;;;11.40;10.20;;;25.50;96.40;;;;;;5029677;28;20450;-71
2021/06/08 07:52:32;;;;;;;12.30;11.00;;;25.90;95.20;;;;;;5024836;28;20477;-71
2021/06/08 07:54:59;;;;;;;13.00;10.40;;;26.60;94.70;;;;;;5030111;28;20555;-73
2021/06/08 07:57:26;;;;;;;12.83;10.97;;;27.90;92.30;;;;;;5030626;28;20529;-70
2021/06/08 07:59:52;;;;;;;15.07;11.40;;;28.30;90.90;;;;;;5024110;28;20458;-70
2021/06/08 08:02:20;;;;;;;10.80;9.80;;;28.90;90.50;;;;;;5029970;28;21012;-70
2021/06/08 08:04:51;;;;;;;10.70;9.60;;;30.10;87.00;;;;;;5030804;28;20450;-69
2021/06/08 08:07:21;;;;;;;15.13;12.10;;;31.10;83.80;;;;;;5031160;28;20504;-68
2021/06/08 08:09:48;;;;;;;11.93;10.83;;;31.40;80.70;;;;;;5027722;28;20494;-67
2021/06/08 08:12:16;;;;;;;10.37;9.43;;;31.30;80.70;;;;;;5028682;28;20976;-71
2021/06/08 08:14:44;;;;;;;12.77;10.33;;;31.70;78.60;;;;;;5030385;28;20586;-69
2021/06/08 08:17:11;;;;;;;11.60;10.43;;;31.40;79.30;;;;;;5026552;28;20479;-69
2021/06/08 08:19:39;;;;;;;9.60;8.63;;;31.00;80.00;;;;;;5029714;28;20458;-71
2021/06/08 08:22:09;;;;;;;12.90;10.87;;;30.50;80.60;;;;;;5037979;28;20520;-69
2021/06/08 08:24:36;;;;;;;11.30;10.30;;;30.00;81.70;;;;;;5034330;28;20793;-68
2021/06/08 08:27:04;;;;;;;9.60;8.63;;;29.70;84.30;;;;;;5031719;28;20479;-70
2021/06/08 08:29:31;;;;;;;9.70;8.70;;;30.00;83.40;;;;;;5033038;28;20454;-69
2021/06/08 08:31:58;;;;;;;10.37;9.47;;;30.10;82.50;;;;;;5036616;28;20462;-70
2021/06/08 08:34:25;;;;;;;9.77;8.90;;;29.90;82.30;;;;;;5030555;28;20450;-70
2021/06/08 08:36:52;;;;;;;11.60;10.57;;;29.60;84.10;;;;;;5037248;28;20476;-70
2021/06/08 08:39:20;;;;;;;10.30;9.40;;;29.70;83.50;;;;;;5030310;28;20451;-69
2021/06/08 08:41:47;;;;;;;8.57;7.77;;;29.70;83.30;;;;;;5030550;28;20490;-71
2021/06/08 08:44:15;;;;;;;10.37;9.33;;;29.90;83.30;;;;;;5033391;28;20850;-69
2021/06/08 08:46:42;;;;;;;11.30;9.27;;;30.00;82.00;;;;;;5030323;28;20475;-69
2021/06/08 08:49:09;;;;;;;12.77;10.33;;;30.60;82.50;;;;;;5036222;28;20488;-69
2021/06/08 08:51:38;;;;;;;10.73;9.73;;;31.20;78.80;;;;;;5027242;28;20470;-69
2021/06/08 08:54:07;;;;;;;11.20;10.30;;;31.60;78.40;;;;;;5028146;28;20538;-69
2021/06/08 08:56:38;;;;;;;12.60;9.93;;;31.90;76.80;;;;;;5032500;28;20991;-71
2021/06/08 08:59:05;;;;;;;9.17;8.37;;;32.00;77.10;;;;;;5034152;28;20470;-70
2021/06/08 09:01:34;;;;;;;9.03;8.23;;;32.20;76.10;;;;;;5033026;28;20536;-69
2021/06/08 09:04:02;;;;;;;13.00;9.60;;;32.70;74.00;;;;;;5034071;28;20457;-69
2021/06/08 09:06:29;;;;;;;8.53;7.67;;;32.50;73.60;;;;;;5033404;28;20525;-67
2021/06/08 09:08:57;;;;;;;9.53;8.60;;;32.50;74.40;;;;;;5034602;28;20451;-67
2021/06/08 09:11:23;;;;;;;7.70;7.00;;;32.80;74.00;;;;;;5037570;28;20538;-72
2021/06/08 09:13:52;;;;;;;8.33;7.60;;;33.30;72.80;;;;;;5038273;28;20556;-68
2021/06/08 09:16:22;;;;;;;7.13;6.37;;;33.80;71.00;;;;;;5033606;28;20475;-68
2021/06/08 09:18:48;;;;;;;8.60;7.80;;;33.50;71.70;;;;;;5032356;28;20945;-68
2021/06/08 09:21:18;;;;;;;7.63;6.90;;;33.60;69.60;;;;;;5033052;28;20489;-70
2021/06/08 09:23:45;;;;;;;7.40;6.57;;;33.30;69.80;;;;;;5033712;28;20458;-69
2021/06/08 09:26:14;;;;;;;8.17;7.47;;;33.10;70.80;;;;;;5033139;28;20442;-71
2021/06/08 09:28:41;;;;;;;11.70;8.90;;;33.20;70.80;;;;;;5026952;28;21044;-71
2021/06/08 09:31:13;;;;;;;14.43;8.00;;;32.50;72.30;;;;;;5035898;28;20443;-69
2021/06/08 09:33:41;;;;;;;9.20;8.30;;;32.30;73.30;;;;;;5033992;28;20451;-71
2021/06/08 09:36:10;;;;;;;8.40;7.63;;;32.60;73.10;;;;;;5034002;28;20790;-70
2021/06/08 09:38:43;;;;;;;10.33;7.13;;;32.60;71.60;;;;;;5034298;28;20458;-70
2021/06/08 09:41:18;;;;;;;11.00;8.50;;;32.90;72.20;;;;;;5036165;28;20482;-71
2021/06/08 09:43:49;;;;;;;7.83;7.13;;;32.80;71.00;;;;;;5033961;28;20442;-70
2021/06/08 09:46:18;;;;;;;9.60;6.40;;;32.40;71.60;;;;;;5032763;28;20459;-70
2021/06/08 09:48:50;;;;;;;9.80;7.20;;;32.20;71.30;;;;;;5032121;28;20458;-70
2021/06/08 09:51:17;;;;;;;8.10;7.27;;;31.60;73.50;;;;;;5034942;28;20450;-71
2021/06/08 09:53:44;;;;;;;7.30;6.70;;;31.40;75.00;;;;;;5033190;28;20450;-70
2021/06/08 09:56:11;;;;;;;8.33;7.53;;;31.50;74.90;;;;;;5031193;28;20510;-71
2021/06/08 09:58:43;;;;;;;7.27;6.47;;;31.90;74.90;;;;;;5031829;28;20936;-71
2021/06/08 10:01:13;;;;;;;9.97;8.97;;;32.10;72.40;;;;;;5032449;28;20992;-71
2021/06/08 10:03:44;;;;;;;10.60;8.63;;;31.80;72.60;;;;;;5035066;28;20454;-70
2021/06/08 10:06:12;;;;;;;9.00;7.67;;;31.60;74.60;;;;;;5032610;28;20443;-69
2021/06/08 10:08:49;;;;;;;6.90;6.20;;;31.50;74.80;;;;;;5037359;28;20513;-69
2021/06/08 10:11:17;;;;;;;7.47;6.77;;;31.40;74.10;;;;;;5037515;28;20937;-71
2021/06/08 10:13:43;;;;;;;8.60;7.70;;;31.40;74.70;;;;;;5034658;28;20987;-71
2021/06/08 10:16:12;;;;;;;9.33;8.50;;;31.60;75.00;;;;;;5032840;28;20505;-69
2021/06/08 10:18:45;;;;;;;8.13;7.43;;;32.00;72.50;;;;;;5032139;28;20509;-71
2021/06/08 10:21:12;;;;;;;7.50;6.80;;;31.40;72.90;;;;;;5033648;28;20981;-72
2021/06/08 10:23:39;;;;;;;7.20;6.60;;;30.70;75.40;;;;;;5031960;28;20837;-70
2021/06/08 10:26:08;;;;;;;6.13;5.53;;;30.90;75.40;;;;;;5031245;28;20461;-70
2021/06/08 10:28:35;;;;;;;7.60;5.90;;;31.30;75.30;;;;;;5032831;28;20597;-69
2021/06/08 10:31:03;;;;;;;7.73;7.03;;;32.10;72.40;;;;;;5035522;28;20439;-68
2021/06/08 10:33:30;;;;;;;8.47;7.67;;;32.10;70.20;;;;;;5035184;28;20523;-69
2021/06/08 10:35:59;;;;;;;7.20;6.53;;;32.10;70.50;;;;;;5031709;28;20525;-71
2021/06/08 10:38:26;;;;;;;8.70;7.80;;;31.60;71.00;;;;;;5028527;28;20451;-70
2021/06/08 10:40:56;;;;;;;8.50;7.80;;;31.30;72.90;;;;;;5028434;28;20479;-74
2021/06/08 10:43:24;;;;;;;8.33;7.63;;;30.70;74.10;;;;;;5027753;28;20514;-73
2021/06/08 10:45:55;;;;;;;9.03;8.23;;;30.10;76.90;;;;;;5032140;28;20439;-74
2021/06/08 10:48:26;;;;;;;9.30;8.50;;;29.90;77.80;;;;;;5035295;28;20447;-73
2021/06/08 10:51:11;;;;;;;8.80;8.00;;;29.30;78.70;;;;;;5027964;28;20447;-76
2021/06/08 10:53:41;;;;;;;9.27;8.57;;;29.00;80.50;;;;;;5014893;28;20533;-74
2021/06/08 10:56:24;;;;;;;8.27;7.57;;;28.60;80.80;;;;;;5029221;28;20756;-75
2021/06/08 10:58:53;;;;;;;7.10;6.50;;;28.40;81.80;;;;;;5027647;28;20561;-74
2021/06/08 11:01:50;;;;;;;7.50;6.90;;;28.60;81.00;;;;;;5030714;28;20497;-72
2021/06/08 11:04:24;;;;;;;7.73;7.00;;;28.80;79.60;;;;;;5030664;28;20443;-73
2021/06/08 11:06:58;;;;;;;8.40;7.60;;;28.70;81.20;;;;;;5028836;28;21379;-71
2021/06/08 11:09:33;;;;;;;8.60;7.60;;;29.00;80.20;;;;;;5026498;28;20458;-72
2021/06/08 11:12:03;;;;;;;8.93;8.13;;;29.20;78.60;;;;;;5029713;28;20522;-71
2021/06/08 11:14:48;;;;;;;7.53;6.83;;;29.10;79.20;;;;;;5028821;28;20925;-72
2021/06/08 11:17:27;;;;;;;9.53;8.63;;;28.90;81.30;;;;;;5020991;28;20506;-72
2021/06/08 11:19:55;;;;;;;9.60;8.70;;;28.70;81.10;;;;;;5003872;28;20510;-72
2021/06/08 11:22:54;;;;;;;7.83;7.13;;;28.60;81.40;;;;;;5030907;28;20490;-71
2021/06/08 11:25:54;;;;;;;7.83;7.13;;;28.80;80.70;;;;;;5031575;28;20454;-70
2021/06/08 11:28:22;;;;;;;10.13;9.20;;;28.90;78.90;;;;;;4988619;28;20536;-71
2021/06/08 11:31:07;;;;;;;10.00;7.67;;;28.80;79.50;;;;;;4993162;28;20465;-72
2021/06/08 11:33:35;;;;;;;7.00;6.30;;;28.50;80.60;;;;;;5013131;28;20451;-71
2021/06/08 11:36:23;;;;;;;9.20;8.40;;;28.60;81.40;;;;;;5031637;28;20451;-71
2021/06/08 11:38:52;;;;;;;8.30;7.60;;;28.70;78.60;;;;;;5026559;28;20438;-71
2021/06/08 11:41:19;;;;;;;9.53;7.13;;;29.00;80.60;;;;;;5031139;28;20490;-72
2021/06/08 11:43:54;;;;;;;10.20;7.90;;;28.90;81.60;;;;;;5031320;28;20522;-72
2021/06/08 11:46:30;;;;;;;8.27;7.57;;;28.70;81.70;;;;;;5031450;28;20467;-72
2021/06/08 11:49:23;;;;;;;8.97;8.00;;;28.60;81.80;;;;;;5028945;28;20454;-73
2021/06/08 11:52:08;;;;;;;9.07;8.27;;;28.70;81.80;;;;;;5019727;28;20443;-71
2021/06/08 11:54:48;;;;;;;9.27;8.47;;;28.30;83.10;;;;;;5031850;28;20478;-72
2021/06/08 11:57:35;;;;;;;8.80;8.10;;;27.90;84.30;;;;;;5029447;28;20471;-72
2021/06/08 12:00:02;;;;;;;7.80;7.20;;;27.70;84.80;;;;;;5030916;28;20447;-72
2021/06/08 12:02:48;;;;;;;9.60;8.20;;;27.60;85.00;;;;;;5031059;28;20486;-71
2021/06/08 12:05:20;;;;;;;6.97;6.27;;;27.50;84.80;;;;;;5029486;28;20466;-71
2021/06/08 12:07:51;;;;;;;7.77;6.90;;;27.30;83.30;;;;;;5030699;28;20485;-70
2021/06/08 12:10:38;;;;;;;8.23;7.50;;;27.40;83.70;;;;;;5038391;28;20459;-72
2021/06/08 12:13:05;;;;;;;8.70;7.00;;;27.60;83.20;;;;;;5030509;28;20443;-70
2021/06/08 12:15:34;;;;;;;7.70;6.90;;;27.50;84.40;;;;;;5036527;28;20447;-70
2021/06/08 12:18:08;;;;;;;6.50;5.90;;;27.50;83.90;;;;;;5027729;28;20463;-72
2021/06/08 12:20:38;;;;;;;7.03;6.27;;;27.70;84.20;;;;;;5031339;28;20470;-70
2021/06/08 12:23:04;;;;;;;7.37;6.67;;;27.70;83.30;;;;;;5026293;28;20474;-71
2021/06/08 12:25:35;;;;;;;9.13;8.33;;;28.00;82.70;;;;;;5031275;28;20449;-71
2021/06/08 12:28:09;;;;;;;9.70;8.80;;;28.10;82.30;;;;;;5031152;28;21032;-71
2021/06/08 12:30:36;;;;;;;7.27;6.47;;;28.00;82.00;;;;;;5030955;28;20466;-72
2021/06/08 12:33:04;;;;;;;8.80;8.00;;;28.20;82.00;;;;;;5033589;28;20478;-71
2021/06/08 12:35:35;;;;;;;7.73;6.90;;;28.10;80.50;;;;;;5035325;28;20925;-71
2021/06/08 12:38:14;;;;;;;11.00;8.57;;;27.60;81.80;;;;;;5029027;28;20547;-72
2021/06/08 12:40:44;;;;;;;7.17;5.87;;;27.50;83.00;;;;;;5024313;28;20588;-72
2021/06/08 12:43:11;;;;;;;8.70;5.50;;;27.10;83.20;;;;;;5027080;28;20443;-74
2021/06/08 12:45:38;;;;;;;7.47;6.77;;;27.10;82.80;;;;;;5033685;28;20510;-71